Time;durP1;ratioP1;P1;durP2;ratioP2;P2;SDS_P1;SDS_P2;PMS_P1;PMS_P2;Temp;Humidity;BMP_temperature;BMP_pressure;BME280_temperature;BME280_humidity;BME280_pressure;Samples;Min_cycle;Max_cycle;Signal;HPM_P1;HPM_P2
2022/09/23 00:01:08;;;;;;;6.05;5.35;;;;;;;13.37;62.30;101688.56;6275998;22;20018;-58
2022/09/23 00:03:36;;;;;;;11.43;6.00;;;;;;;13.35;62.73;101694.38;6276512;22;20007;-58
2022/09/23 00:06:07;;;;;;;8.63;5.97;;;;;;;13.36;62.73;101695.22;6275597;22;20071;-58
2022/09/23 00:08:32;;;;;;;7.78;6.00;;;;;;;13.35;62.58;101691.59;6275152;22;20015;-57
2022/09/23 00:11:30;;;;;;;8.10;6.55;;;;;;;13.44;61.99;101692.00;6276110;22;20320;-58
2022/09/23 00:13:58;;;;;;;10.27;5.47;;;;;;;13.29;62.34;101698.19;6207533;22;20014;-58
2022/09/23 00:16:32;;;;;;;11.77;6.32;;;;;;;13.32;62.71;101694.03;6276365;22;20004;-58
2022/09/23 00:18:59;;;;;;;12.55;6.28;;;;;;;13.29;62.60;101698.19;6274991;22;20373;-58
2022/09/23 00:21:25;;;;;;;7.65;5.68;;;;;;;13.24;63.02;101695.28;6276201;22;20004;-58
2022/09/23 00:23:51;;;;;;;8.80;5.47;;;;;;;13.26;63.01;101693.09;6274718;22;20004;-58
2022/09/23 00:26:19;;;;;;;7.50;5.72;;;;;;;13.20;63.10;101683.78;6274569;22;20004;-58
2022/09/23 00:28:46;;;;;;;7.78;5.22;;;;;;;13.23;62.76;101680.50;6275494;22;20000;-58
2022/09/23 00:31:17;;;;;;;8.43;5.90;;;;;;;13.18;62.89;101679.53;6275686;22;20007;-58
2022/09/23 00:33:43;;;;;;;10.07;5.80;;;;;;;13.19;62.91;101681.22;6274256;22;20089;-58
2022/09/23 00:36:14;;;;;;;7.57;5.97;;;;;;;13.16;62.99;101676.16;6275632;22;20234;-59
2022/09/23 00:38:39;;;;;;;9.30;6.50;;;;;;;13.13;62.59;101673.88;6275588;22;19999;-58
2022/09/23 00:41:05;;;;;;;7.85;6.40;;;;;;;13.13;62.71;101676.66;6274310;22;20461;-58
2022/09/23 00:43:52;;;;;;;7.90;6.00;;;;;;;13.18;62.44;101660.03;6275687;22;20007;-58
2022/09/23 00:46:20;;;;;;;7.45;6.05;;;;;;;13.09;62.92;101675.47;6275664;22;20011;-58
2022/09/23 00:48:49;;;;;;;9.32;5.90;;;;;;;13.03;62.53;101672.56;6274378;22;20004;-58
2022/09/23 00:51:21;;;;;;;7.00;6.05;;;;;;;13.03;62.48;101668.94;6275628;22;20412;-58
2022/09/23 00:53:49;;;;;;;7.38;5.72;;;;;;;13.05;62.57;101668.69;6275317;22;20015;-58
2022/09/23 00:56:14;;;;;;;8.32;6.53;;;;;;;13.01;62.62;101663.63;6275642;22;20008;-58
2022/09/23 00:58:43;;;;;;;7.90;6.72;;;;;;;12.98;62.42;101669.69;6275529;22;20059;-58
2022/09/23 01:01:11;;;;;;;9.57;6.63;;;;;;;12.95;62.91;101669.34;6274054;22;20770;-58
2022/09/23 01:03:36;;;;;;;8.02;6.22;;;;;;;12.96;62.55;101669.09;6275577;22;20000;-58
2022/09/23 01:06:02;;;;;;;9.52;7.15;;;;;;;12.93;62.40;101669.63;6275639;22;20042;-58
2022/09/23 01:08:27;;;;;;;8.77;6.85;;;;;;;12.90;62.20;101663.69;6274082;22;20061;-57
2022/09/23 01:11:14;;;;;;;9.00;6.95;;;;;;;12.87;62.45;101655.81;6275484;22;20004;-57
2022/09/23 01:13:58;;;;;;;8.65;7.22;;;;;;;12.93;62.33;101655.69;6275030;22;20488;-58
2022/09/23 01:16:39;;;;;;;11.60;7.50;;;;;;;12.93;62.48;101661.25;6274440;22;20114;-58
2022/09/23 01:19:42;;;;;;;10.80;7.80;;;;;;;12.97;62.28;101661.59;6275384;22;20007;-58
2022/09/23 01:22:25;;;;;;;10.02;8.00;;;;;;;12.92;62.20;101656.75;6274354;22;20332;-58
2022/09/23 01:25:05;;;;;;;9.25;7.60;;;;;;;12.87;62.37;101655.81;6275664;22;20083;-58
2022/09/23 01:27:46;;;;;;;9.30;7.45;;;;;;;12.83;62.52;101660.19;6275624;22;20066;-58
2022/09/23 01:30:32;;;;;;;10.10;8.32;;;;;;;12.79;62.11;101657.06;6274852;22;20039;-58
2022/09/23 01:33:03;;;;;;;11.90;7.93;;;;;;;12.76;62.01;101650.03;6274751;22;20015;-58
2022/09/23 01:36:01;;;;;;;10.52;7.80;;;;;;;12.85;61.80;101649.63;6275663;22;20067;-58
2022/09/23 01:38:50;;;;;;;10.43;7.90;;;;;;;12.75;62.50;101645.56;6274229;22;20004;-58
2022/09/23 01:41:36;;;;;;;9.55;7.65;;;;;;;12.75;61.99;101651.13;6275469;22;20110;-58
2022/09/23 01:44:32;;;;;;;10.85;7.88;;;;;;;12.76;61.70;101655.59;6274257;22;20380;-58
2022/09/23 01:47:20;;;;;;;9.60;7.70;;;;;;;12.71;62.14;101646.31;6231505;22;20004;-57
2022/09/23 01:49:52;;;;;;;11.25;8.60;;;;;;;12.61;62.63;101651.66;6274637;22;20436;-58
2022/09/23 01:52:26;;;;;;;12.50;7.70;;;;;;;12.62;62.82;101645.03;6274311;22;20010;-58
2022/09/23 01:55:17;;;;;;;12.75;8.30;;;;;;;12.66;62.44;101646.22;6274681;22;20004;-58
2022/09/23 01:57:56;;;;;;;14.32;8.40;;;;;;;12.57;62.75;101644.91;6274255;22;20064;-58
2022/09/23 02:00:22;;;;;;;9.50;8.45;;;;;;;12.51;62.81;101646.75;6275456;22;20010;-58
2022/09/23 02:03:03;;;;;;;13.05;8.23;;;;;;;12.55;63.17;101641.53;6275317;22;20086;-58
2022/09/23 02:05:43;;;;;;;10.32;8.23;;;;;;;12.57;63.11;101642.13;6274519;22;20004;-58
2022/09/23 02:08:25;;;;;;;11.13;8.82;;;;;;;12.54;63.24;101635.13;6275149;22;20046;-57
2022/09/23 02:10:57;;;;;;;11.55;9.07;;;;;;;12.53;63.22;101633.41;6275249;22;20007;-58
2022/09/23 02:13:35;;;;;;;11.18;9.23;;;;;;;12.51;63.10;101639.25;6273250;22;20008;-58
2022/09/23 02:16:20;;;;;;;9.77;8.68;;;;;;;12.51;63.18;101635.59;6274619;22;20007;-58
2022/09/23 02:18:52;;;;;;;12.48;9.70;;;;;;;12.50;63.29;101634.78;6273820;22;20008;-58
2022/09/23 02:21:20;;;;;;;11.20;8.65;;;;;;;12.49;63.34;101629.44;6274727;22;19999;-58
2022/09/23 02:23:51;;;;;;;11.25;9.57;;;;;;;12.52;63.36;101629.78;6274712;22;20097;-58
2022/09/23 02:26:21;;;;;;;11.38;8.73;;;;;;;12.48;63.63;101622.16;6273707;22;20008;-58
2022/09/23 02:29:17;;;;;;;10.68;8.70;;;;;;;12.51;63.47;101619.75;6274615;22;20012;-58
2022/09/23 02:32:07;;;;;;;10.70;9.25;;;;;;;12.48;63.35;101617.44;6274427;22;20061;-58
2022/09/23 02:34:56;;;;;;;11.65;9.15;;;;;;;12.49;63.38;101613.56;6254955;22;20020;-58
2022/09/23 02:37:46;;;;;;;12.18;9.65;;;;;;;12.47;63.51;101603.78;6274589;22;20015;-58
2022/09/23 02:40:36;;;;;;;11.35;8.80;;;;;;;12.49;63.35;101610.78;6273854;22;20061;-58
2022/09/23 02:43:11;;;;;;;12.30;8.95;;;;;;;12.42;63.54;101604.53;6274580;22;20093;-58
2022/09/23 02:45:39;;;;;;;9.02;8.13;;;;;;;12.37;63.31;101598.84;6275088;22;20205;-58
2022/09/23 02:48:11;;;;;;;12.18;9.55;;;;;;;12.38;63.32;101596.91;6273448;22;20011;-58
2022/09/23 02:50:37;;;;;;;10.80;8.93;;;;;;;12.37;62.99;101601.63;6276434;22;19999;-58
2022/09/23 02:53:03;;;;;;;11.43;10.10;;;;;;;12.31;63.02;101591.50;6274755;22;20008;-58
2022/09/23 02:55:31;;;;;;;12.43;9.60;;;;;;;12.26;63.30;101589.44;6275337;22;20027;-58
2022/09/23 02:58:00;;;;;;;10.80;9.27;;;;;;;12.25;62.91;101589.69;6276375;22;20007;-57
2022/09/23 03:00:52;;;;;;;10.45;9.35;;;;;;;12.22;63.08;101588.25;6275601;22;20000;-57
2022/09/23 03:03:39;;;;;;;11.93;10.40;;;;;;;12.32;62.63;101589.56;6240474;22;20007;-58
2022/09/23 03:06:26;;;;;;;13.38;8.88;;;;;;;12.23;63.22;101586.31;6276050;22;20464;-58
2022/09/23 03:08:59;;;;;;;10.50;9.40;;;;;;;12.13;62.85;101586.09;6275621;22;20668;-58
2022/09/23 03:11:25;;;;;;;10.20;8.75;;;;;;;12.12;63.23;101584.41;6276280;22;20018;-59
2022/09/23 03:14:15;;;;;;;9.95;8.85;;;;;;;12.10;63.23;101581.00;6276339;22;19999;-58
2022/09/23 03:17:03;;;;;;;14.05;9.40;;;;;;;12.08;62.89;101580.41;6275906;22;20011;-58
2022/09/23 03:19:40;;;;;;;13.50;9.73;;;;;;;12.09;63.28;101576.53;6275322;22;20038;-58
2022/09/23 03:22:17;;;;;;;13.55;9.27;;;;;;;12.04;63.14;101575.34;6275706;22;20007;-58
2022/09/23 03:24:45;;;;;;;10.65;8.73;;;;;;;11.97;63.15;101571.00;6276408;22;20019;-57
2022/09/23 03:27:17;;;;;;;11.93;9.23;;;;;;;11.94;63.45;101575.09;6276412;22;20000;-59
2022/09/23 03:29:46;;;;;;;12.93;9.32;;;;;;;11.96;63.00;101570.16;6274966;22;20012;-58
2022/09/23 03:32:18;;;;;;;11.52;8.85;;;;;;;11.96;63.37;101574.88;6276433;22;20004;-59
2022/09/23 03:34:47;;;;;;;11.30;9.48;;;;;;;11.92;63.17;101571.75;6307392;22;20008;-59
2022/09/23 03:37:25;;;;;;;10.38;9.27;;;;;;;11.93;63.08;101565.06;6306596;22;20106;-59
2022/09/23 03:40:18;;;;;;;12.15;9.18;;;;;;;11.95;63.10;101576.81;6306894;22;20004;-58
2022/09/23 03:42:43;;;;;;;11.80;9.10;;;;;;;11.92;62.86;101563.41;6305338;22;20044;-59
2022/09/23 03:45:17;;;;;;;11.98;8.98;;;;;;;11.91;63.05;101575.63;6306463;22;20069;-59
2022/09/23 03:47:43;;;;;;;10.68;9.57;;;;;;;11.88;62.96;101570.53;6307417;22;20011;-58
2022/09/23 03:50:08;;;;;;;12.77;9.02;;;;;;;11.88;62.79;101570.53;6306294;22;20003;-58
2022/09/23 03:52:33;;;;;;;11.90;9.20;;;;;;;11.83;62.79;101566.75;6306909;22;20375;-58
2022/09/23 03:55:00;;;;;;;11.35;9.38;;;;;;;11.76;63.22;101562.19;6307175;22;20430;-58
2022/09/23 03:57:25;;;;;;;13.15;8.70;;;;;;;11.77;63.16;101563.84;6306107;22;20003;-58
2022/09/23 03:59:51;;;;;;;9.48;8.57;;;;;;;11.78;63.15;101564.69;6306744;22;20411;-58
2022/09/23 04:02:18;;;;;;;10.50;8.50;;;;;;;11.75;63.34;101554.94;6306819;22;20011;-58
2022/09/23 04:04:44;;;;;;;10.23;9.23;;;;;;;11.77;63.01;101568.59;6305324;22;20003;-58
2022/09/23 04:07:10;;;;;;;9.82;8.85;;;;;;;11.75;63.44;101560.50;6307040;22;20006;-58
2022/09/23 04:09:36;;;;;;;11.07;9.07;;;;;;;11.77;63.36;101558.28;6306795;22;20010;-58
2022/09/23 04:12:03;;;;;;;10.00;9.00;;;;;;;11.75;63.03;101554.06;6305782;22;20324;-58
2022/09/23 04:14:29;;;;;;;14.18;8.80;;;;;;;11.75;63.59;101554.06;6306239;22;20009;-58
2022/09/23 04:16:54;;;;;;;9.65;8.57;;;;;;;11.74;63.15;101569.91;6307102;22;20027;-58
2022/09/23 04:19:20;;;;;;;9.65;8.65;;;;;;;11.74;63.15;101560.72;6306187;22;20059;-58
2022/09/23 04:21:46;;;;;;;11.02;8.70;;;;;;;11.73;63.48;101559.03;6305678;22;20003;-58
2022/09/23 04:24:12;;;;;;;13.77;8.63;;;;;;;11.76;63.60;101555.78;6306693;22;20003;-58
2022/09/23 04:26:38;;;;;;;9.20;8.30;;;;;;;11.75;63.42;101566.06;6305451;22;20084;-58
2022/09/23 04:29:04;;;;;;;11.98;8.75;;;;;;;11.76;63.56;101569.69;6306072;22;20003;-58
2022/09/23 04:31:31;;;;;;;10.60;8.07;;;;;;;11.73;63.28;101556.25;6306307;22;20018;-58
2022/09/23 04:33:57;;;;;;;9.30;8.30;;;;;;;11.72;63.50;101549.00;6283947;22;20019;-59
2022/09/23 04:36:22;;;;;;;11.50;8.07;;;;;;;11.71;63.58;101550.94;6275575;22;19999;-58
2022/09/23 04:38:49;;;;;;;9.77;8.30;;;;;;;11.76;63.71;101561.34;6275066;22;20004;-59
2022/09/23 04:41:15;;;;;;;10.35;8.93;;;;;;;11.68;63.38;101556.16;6274265;22;20076;-59
2022/09/23 04:43:41;;;;;;;9.27;7.97;;;;;;;11.66;63.69;101548.03;6275511;22;20380;-58
2022/09/23 04:46:09;;;;;;;10.98;8.07;;;;;;;11.68;63.87;101551.44;6274234;22;20018;-59
2022/09/23 04:48:36;;;;;;;12.05;8.60;;;;;;;11.65;63.76;101549.13;6275484;22;20328;-59
2022/09/23 04:51:06;;;;;;;10.93;8.48;;;;;;;11.69;64.04;101543.94;6275451;22;20026;-59
2022/09/23 04:53:34;;;;;;;10.88;8.80;;;;;;;11.68;63.94;101548.66;6274610;22;20003;-59
2022/09/23 04:56:02;;;;;;;11.63;8.00;;;;;;;11.65;64.06;101548.28;6275562;22;20003;-59
2022/09/23 04:58:27;;;;;;;11.35;8.48;;;;;;;11.66;63.76;101542.47;6275405;22;20014;-59
2022/09/23 05:00:53;;;;;;;11.20;8.38;;;;;;;11.66;64.23;101541.63;6274081;22;20327;-59
2022/09/23 05:03:18;;;;;;;13.68;8.20;;;;;;;11.66;64.24;101534.13;6274795;22;20011;-59
2022/09/23 05:05:44;;;;;;;11.75;8.52;;;;;;;11.66;64.30;101538.84;6275352;22;20090;-59
2022/09/23 05:08:10;;;;;;;11.90;8.32;;;;;;;11.63;64.19;101530.97;6274557;22;20086;-59
2022/09/23 05:10:35;;;;;;;12.27;7.88;;;;;;;11.58;64.77;101531.72;6274696;22;20030;-59
2022/09/23 05:13:00;;;;;;;12.30;8.15;;;;;;;11.63;64.18;101533.75;6274987;22;20008;-59
2022/09/23 05:15:26;;;;;;;11.27;7.88;;;;;;;11.61;64.46;101541.53;6273811;22;20007;-59
2022/09/23 05:17:51;;;;;;;10.02;8.57;;;;;;;11.61;64.57;101542.38;6275258;22;20027;-59
2022/09/23 05:20:19;;;;;;;10.48;8.18;;;;;;;11.57;64.67;101543.94;6275084;22;20039;-59
2022/09/23 05:22:45;;;;;;;9.23;7.85;;;;;;;11.59;64.75;101540.91;6274290;22;20008;-59
2022/09/23 05:25:10;;;;;;;12.57;8.80;;;;;;;11.59;64.69;101547.31;6274993;22;20162;-59
2022/09/23 05:27:35;;;;;;;12.18;8.98;;;;;;;11.56;64.95;101542.25;6275381;22;20007;-59
2022/09/23 05:30:01;;;;;;;9.70;8.48;;;;;;;11.58;64.63;101547.56;6274169;22;20031;-59
2022/09/23 05:32:30;;;;;;;9.05;8.15;;;;;;;11.59;64.67;101549.25;6274713;22;20034;-59
2022/09/23 05:34:55;;;;;;;8.88;7.32;;;;;;;11.58;65.00;101547.56;6274776;22;20008;-59
2022/09/23 05:37:21;;;;;;;10.18;8.30;;;;;;;11.58;64.68;101555.91;6273338;22;20030;-60
2022/09/23 05:39:46;;;;;;;9.85;7.28;;;;;;;11.59;64.79;101550.09;6275062;22;20008;-59
2022/09/23 05:42:11;;;;;;;10.60;7.85;;;;;;;11.61;64.38;101558.19;6274076;22;20082;-59
2022/09/23 05:44:38;;;;;;;9.95;7.32;;;;;;;11.60;64.70;101562.06;6275274;22;20003;-57
2022/09/23 05:47:03;;;;;;;9.20;7.88;;;;;;;11.64;65.06;101557.72;6275070;22;19999;-58
2022/09/23 05:49:29;;;;;;;9.85;7.97;;;;;;;11.66;64.85;101549.97;6273255;22;20786;-58
2022/09/23 05:51:55;;;;;;;13.23;8.50;;;;;;;11.66;64.39;101553.59;6274805;22;20086;-58
2022/09/23 05:54:20;;;;;;;9.07;8.07;;;;;;;11.72;64.13;101560.97;6274245;22;20004;-58
2022/09/23 05:56:45;;;;;;;11.52;7.18;;;;;;;11.70;64.67;101565.06;6273788;22;20038;-58
2022/09/23 05:59:11;;;;;;;11.40;7.57;;;;;;;11.77;64.69;101563.03;6275302;22;20077;-58
2022/09/23 06:01:37;;;;;;;13.40;8.02;;;;;;;11.75;64.49;101566.06;6275029;22;20091;-58
2022/09/23 06:04:05;;;;;;;10.32;7.57;;;;;;;11.74;64.39;101561.56;6273890;22;20424;-58
2022/09/23 06:06:36;;;;;;;12.88;8.07;;;;;;;11.78;63.97;101561.91;6274749;22;20071;-59
2022/09/23 06:09:03;;;;;;;10.23;7.25;;;;;;;11.79;63.99;101560.84;6274987;22;20011;-58
2022/09/23 06:11:29;;;;;;;10.23;7.63;;;;;;;11.79;64.45;101555.28;6273889;22;20319;-58
2022/09/23 06:13:59;;;;;;;11.35;7.65;;;;;;;11.84;64.12;101557.38;6273388;22;20026;-58
2022/09/23 06:16:25;;;;;;;12.77;8.35;;;;;;;11.85;64.28;101550.72;6274294;22;20000;-58
2022/09/23 06:18:53;;;;;;;13.00;8.77;;;;;;;11.89;64.62;101558.31;6274050;22;20489;-58
2022/09/23 06:21:18;;;;;;;14.63;8.07;;;;;;;11.88;64.61;101550.22;6274910;22;20006;-58
2022/09/23 06:23:45;;;;;;;11.80;8.25;;;;;;;11.89;63.86;101549.13;6274429;22;20468;-58
2022/09/23 06:26:12;;;;;;;13.48;9.07;;;;;;;11.91;64.66;101549.75;6275975;22;20320;-58
2022/09/23 06:28:40;;;;;;;11.93;8.55;;;;;;;11.89;65.14;101549.97;6277108;22;20008;-58
2022/09/23 06:31:10;;;;;;;12.75;8.80;;;;;;;11.90;65.50;101543.31;6276839;22;20066;-59
2022/09/23 06:33:36;;;;;;;11.23;8.27;;;;;;;11.90;65.54;101546.09;6275156;22;20015;-58
2022/09/23 06:36:03;;;;;;;10.95;7.93;;;;;;;11.96;65.20;101542.34;6276760;22;20031;-58
2022/09/23 06:38:29;;;;;;;12.07;8.30;;;;;;;11.93;65.52;101550.31;6276022;22;20004;-59
2022/09/23 06:40:56;;;;;;;9.23;7.93;;;;;;;11.93;64.51;101542.81;6276180;22;20007;-58
2022/09/23 06:43:24;;;;;;;11.88;8.20;;;;;;;11.99;64.47;101552.97;6277431;22;20398;-58
2022/09/23 06:46:00;;;;;;;9.90;7.78;;;;;;;12.01;64.38;101548.00;6275950;22;20083;-58
2022/09/23 06:48:27;;;;;;;12.63;8.02;;;;;;;12.03;64.55;101551.41;6276454;22;20069;-58
2022/09/23 06:50:53;;;;;;;10.98;8.55;;;;;;;12.07;64.59;101550.91;6277059;22;20053;-59
2022/09/23 06:53:23;;;;;;;11.93;8.02;;;;;;;12.07;64.36;101551.75;6276067;22;20007;-58
2022/09/23 06:56:01;;;;;;;14.20;8.60;;;;;;;12.13;64.29;101550.75;6277036;22;20008;-58
2022/09/23 06:58:27;;;;;;;10.52;8.77;;;;;;;12.14;64.45;101546.03;6275773;22;19999;-59
2022/09/23 07:00:52;;;;;;;10.15;8.10;;;;;;;12.19;64.08;101548.94;6275556;22;20015;-59
2022/09/23 07:03:18;;;;;;;12.27;8.68;;;;;;;12.18;64.02;101544.44;6277871;22;20011;-58
2022/09/23 07:05:43;;;;;;;12.13;8.88;;;;;;;12.27;64.23;101556.88;6276847;22;20446;-58
2022/09/23 07:08:09;;;;;;;11.02;7.90;;;;;;;12.27;63.98;101552.16;6275729;22;20007;-59
2022/09/23 07:10:35;;;;;;;15.95;8.82;;;;;;;12.29;63.82;101557.47;6276734;22;20007;-58
2022/09/23 07:13:03;;;;;;;12.38;8.63;;;;;;;12.28;63.85;101547.44;6275884;22;20004;-58
2022/09/23 07:15:29;;;;;;;11.80;7.70;;;;;;;12.34;63.25;101545.59;6275387;22;20033;-58
2022/09/23 07:17:55;;;;;;;11.35;8.25;;;;;;;12.33;63.87;101547.53;6275781;22;20000;-58
2022/09/23 07:20:20;;;;;;;13.25;8.60;;;;;;;12.34;63.72;101535.34;6276496;22;20011;-58
2022/09/23 07:22:52;;;;;;;11.23;8.63;;;;;;;12.39;63.95;101534.56;6275367;22;20011;-58
2022/09/23 07:25:18;;;;;;;13.07;8.70;;;;;;;12.39;63.98;101543.78;6276158;22;20011;-58
2022/09/23 07:27:46;;;;;;;10.27;8.63;;;;;;;12.44;63.66;101534.66;6275485;22;20071;-58
2022/09/23 07:30:12;;;;;;;14.25;8.93;;;;;;;12.48;63.70;101544.22;6276187;22;20074;-58
2022/09/23 07:32:40;;;;;;;12.88;8.07;;;;;;;12.72;68.04;101543.00;6275739;22;20027;-58
2022/09/23 07:35:09;;;;;;;4.28;3.88;;;;;;;13.30;68.93;101540.09;6275289;22;20000;-58
2022/09/23 07:37:34;;;;;;;7.32;4.68;;;;;;;13.68;67.38;101540.13;6276033;22;20007;-58
2022/09/23 07:40:00;;;;;;;6.30;4.85;;;;;;;13.97;66.02;101543.59;6275714;22;20385;-59
2022/09/23 07:42:25;;;;;;;6.30;5.30;;;;;;;14.18;63.90;101539.09;6274321;22;20011;-58
2022/09/23 07:44:51;;;;;;;8.35;5.82;;;;;;;14.36;62.90;101546.31;6275885;22;20004;-58
2022/09/23 07:47:16;;;;;;;10.43;6.78;;;;;;;14.32;61.45;101541.50;6275740;22;20012;-58
2022/09/23 07:49:41;;;;;;;8.25;6.10;;;;;;;14.37;61.38;101538.78;6274875;22;20000;-58
2022/09/23 07:52:07;;;;;;;10.35;6.43;;;;;;;14.43;61.08;101544.16;6275996;22;20000;-58
2022/09/23 07:54:32;;;;;;;9.45;6.20;;;;;;;14.45;60.50;101544.72;6275695;22;20547;-59
2022/09/23 07:56:58;;;;;;;9.13;6.40;;;;;;;14.39;59.90;101537.41;6274545;22;20006;-58
2022/09/23 07:59:25;;;;;;;12.00;5.95;;;;;;;14.40;59.47;101539.09;6275709;22;20507;-57
2022/09/23 08:01:52;;;;;;;11.10;7.45;;;;;;;14.26;59.16;101535.00;6275851;22;20010;-58
2022/09/23 08:04:21;;;;;;;11.75;5.75;;;;;;;14.46;59.59;101543.66;6274662;22;20420;-58
2022/09/23 08:06:53;;;;;;;9.38;5.57;;;;;;;14.60;59.31;101541.28;6275737;22;20607;-58
2022/09/23 08:09:20;;;;;;;8.35;5.70;;;;;;;14.70;59.03;101546.16;6275963;22;19996;-57
2022/09/23 08:11:47;;;;;;;10.80;5.70;;;;;;;14.73;59.11;101546.44;6275169;22;20003;-57
2022/09/23 08:14:13;;;;;;;11.50;5.68;;;;;;;14.82;58.77;101546.84;6275747;22;19995;-58
2022/09/23 08:16:43;;;;;;;9.00;6.35;;;;;;;14.69;58.14;101552.84;6275720;22;20023;-57
2022/09/23 08:19:08;;;;;;;11.48;5.72;;;;;;;14.82;58.91;101544.03;6274858;22;19999;-57
2022/09/23 08:21:34;;;;;;;11.20;5.50;;;;;;;14.84;58.73;101538.19;6275883;22;20014;-57
2022/09/23 08:23:59;;;;;;;9.63;5.93;;;;;;;14.92;58.81;101546.91;6275024;22;20027;-57
2022/09/23 08:26:25;;;;;;;9.60;6.00;;;;;;;15.01;58.63;101549.22;6275933;22;20019;-58
2022/09/23 08:28:54;;;;;;;8.13;5.80;;;;;;;15.08;58.68;101549.84;6275292;22;20575;-57
2022/09/23 08:31:22;;;;;;;8.88;5.90;;;;;;;15.10;58.25;101550.44;6274961;22;20007;-58
2022/09/23 08:33:56;;;;;;;8.93;5.82;;;;;;;15.14;58.18;101552.44;6275598;22;20022;-57
2022/09/23 08:36:22;;;;;;;8.38;5.72;;;;;;;15.20;57.96;101544.91;6275993;22;20069;-57
2022/09/23 08:38:47;;;;;;;8.88;6.05;;;;;;;15.29;58.01;101548.94;6274856;22;20019;-58
2022/09/23 08:41:22;;;;;;;11.68;5.63;;;;;;;15.30;57.72;101547.81;6274853;22;20011;-58
2022/09/23 08:43:54;;;;;;;7.75;4.93;;;;;;;15.31;57.44;101555.06;6275482;22;20007;-57
2022/09/23 08:46:25;;;;;;;10.10;5.97;;;;;;;15.40;57.64;101545.06;6272084;22;20007;-58
2022/09/23 08:48:52;;;;;;;8.17;5.17;;;;;;;15.44;57.60;101542.56;6273848;22;20037;-57
2022/09/23 08:51:45;;;;;;;8.45;5.97;;;;;;;15.49;57.72;101541.78;6274037;22;20301;-58
2022/09/23 08:54:11;;;;;;;8.48;5.22;;;;;;;15.45;57.11;101545.13;6260216;22;20029;-58
2022/09/23 08:56:38;;;;;;;9.68;5.85;;;;;;;15.50;56.64;101547.09;6274426;22;20030;-58
2022/09/23 08:59:27;;;;;;;8.48;5.40;;;;;;;15.57;56.87;101547.72;6272832;22;20141;-59
2022/09/23 09:01:59;;;;;;;7.78;5.40;;;;;;;15.69;56.98;101541.94;6273636;22;20007;-59
2022/09/23 09:04:27;;;;;;;8.03;5.00;;;;;;;15.70;56.92;101535.22;6274453;22;20026;-59
2022/09/23 09:07:12;;;;;;;10.18;4.97;;;;;;;15.78;56.57;101537.53;6273443;22;20344;-59
2022/09/23 09:09:53;;;;;;;9.75;5.10;;;;;;;15.71;56.15;101537.75;6273974;22;20015;-58
2022/09/23 09:12:37;;;;;;;8.00;4.93;;;;;;;15.78;56.49;101533.88;6272660;22;20000;-59
2022/09/23 09:15:19;;;;;;;8.98;5.43;;;;;;;15.69;56.50;101548.38;6273170;22;20316;-58
2022/09/23 09:18:05;;;;;;;8.05;5.10;;;;;;;15.77;56.65;101538.63;6273363;22;20010;-58
2022/09/23 09:20:55;;;;;;;7.53;5.20;;;;;;;15.77;56.62;101533.03;6273212;22;20413;-59
2022/09/23 09:23:22;;;;;;;8.85;6.40;;;;;;;15.77;55.80;101530.25;6273910;22;20903;-59
2022/09/23 09:25:50;;;;;;;10.75;4.68;;;;;;;15.92;55.88;101530.31;6273401;22;20443;-58
2022/09/23 09:28:23;;;;;;;9.30;5.63;;;;;;;15.78;55.08;101529.13;6271828;22;20011;-58
2022/09/23 09:31:01;;;;;;;9.20;4.55;;;;;;;15.92;55.43;101532.28;6273083;22;20012;-58
2022/09/23 09:33:43;;;;;;;5.88;4.20;;;;;;;15.97;55.84;101528.66;6273441;22;20026;-59
2022/09/23 09:36:29;;;;;;;7.25;4.47;;;;;;;16.07;55.93;101525.88;6272381;22;20061;-58
2022/09/23 09:38:57;;;;;;;7.13;4.38;;;;;;;16.13;55.42;101522.84;6273144;22;20476;-59
2022/09/23 09:41:27;;;;;;;10.05;4.70;;;;;;;16.17;54.85;101521.19;6271972;22;20027;-58
2022/09/23 09:43:56;;;;;;;9.38;4.38;;;;;;;16.35;54.82;101517.06;6273446;22;20003;-58
2022/09/23 09:46:24;;;;;;;7.35;4.68;;;;;;;16.43;54.62;101513.72;6272455;22;20007;-58
2022/09/23 09:49:45;;;;;;;7.70;4.78;;;;;;;16.44;55.05;101515.38;6272309;22;20014;-58
2022/09/23 09:52:17;;;;;;;6.32;4.32;;;;;;;16.51;54.01;101514.28;6247474;22;20007;-58
2022/09/23 09:54:43;;;;;;;;;;;;;;;16.58;55.67;101518.47;6267386;22;20004;-58
2022/09/23 09:57:18;;;;;;;10.07;4.22;;;;;;;16.65;53.60;101513.47;6270755;22;19918;-59
2022/09/23 09:59:43;;;;;;;6.13;3.80;;;;;;;16.62;53.21;101508.44;6271658;22;20000;-59
2022/09/23 10:02:23;;;;;;;8.18;3.80;;;;;;;16.77;53.65;101518.81;6270206;22;20010;-58
2022/09/23 10:04:58;;;;;;;7.80;4.05;;;;;;;16.73;53.51;101509.28;6270766;22;20010;-58
2022/09/23 10:07:27;;;;;;;5.57;3.58;;;;;;;16.83;53.59;101500.91;6272011;22;20110;-57
2022/09/23 10:09:52;;;;;;;6.70;3.50;;;;;;;16.94;53.36;101510.19;6271271;22;20000;-58
2022/09/23 10:12:20;;;;;;;8.80;3.75;;;;;;;16.90;52.85;101507.09;6271440;22;20331;-57
2022/09/23 10:14:50;;;;;;;6.68;3.80;;;;;;;17.01;52.71;101498.66;6272690;22;20035;-57
2022/09/23 10:17:37;;;;;;;6.85;3.88;;;;;;;16.92;53.03;101504.81;6270058;22;20091;-57
2022/09/23 10:20:08;;;;;;;8.73;5.13;;;;;;;16.80;51.44;101500.63;6271668;22;20000;-57
2022/09/23 10:22:38;;;;;;;9.38;5.35;;;;;;;16.78;51.26;101497.25;6273045;22;20391;-57
2022/09/23 10:25:15;;;;;;;7.55;3.97;;;;;;;16.94;52.65;101493.34;6271877;22;20153;-57
2022/09/23 10:27:44;;;;;;;5.05;3.13;;;;;;;17.07;52.47;101492.78;6272529;22;20082;-57
2022/09/23 10:30:23;;;;;;;6.07;3.97;;;;;;;17.02;52.00;101489.97;6272463;22;20015;-58
2022/09/23 10:32:52;;;;;;;6.75;3.50;;;;;;;17.16;52.01;101488.25;6270382;22;20027;-57
2022/09/23 10:35:22;;;;;;;6.53;3.95;;;;;;;17.19;51.95;101489.69;6269721;22;20008;-58
2022/09/23 10:37:55;;;;;;;8.23;4.53;;;;;;;17.00;51.42;101492.22;6266299;22;20006;-59
2022/09/23 10:49:11;;;;;;;7.22;5.20;;;;;;;16.78;51.94;101497.25;6267257;22;20159;-58
2022/09/23 10:51:52;;;;;;;5.93;4.13;;;;;;;16.86;52.87;101493.91;6266621;22;20018;-59
2022/09/23 10:54:33;;;;;;;5.57;3.67;;;;;;;17.00;53.16;101497.81;6269462;22;20015;-59
2022/09/23 10:57:37;;;;;;;7.07;3.63;;;;;;;17.07;53.06;101491.94;6266108;22;20007;-59
2022/09/23 11:00:40;;;;;;;6.53;3.78;;;;;;;17.05;52.79;101496.97;6266500;22;20156;-59
2022/09/23 11:03:23;;;;;;;12.18;5.15;;;;;;;16.98;52.39;101488.00;6267138;22;20011;-59
2022/09/23 11:06:01;;;;;;;7.45;5.00;;;;;;;16.92;51.16;101481.56;6266282;22;20007;-59
2022/09/23 11:09:02;;;;;;;8.57;5.75;;;;;;;16.88;52.06;101486.88;6270710;22;20302;-58
2022/09/23 11:11:46;;;;;;;6.25;3.92;;;;;;;16.92;52.22;101488.00;6274291;22;20007;-59
2022/09/23 11:14:37;;;;;;;8.00;4.40;;;;;;;16.95;51.89;101488.56;6269871;22;20007;-59
2022/09/23 11:17:27;;;;;;;8.05;4.15;;;;;;;16.97;51.40;101483.50;6272732;22;20428;-58
2022/09/23 11:20:14;;;;;;;10.45;3.80;;;;;;;17.13;52.03;101474.84;6270492;22;20053;-58
2022/09/23 11:22:58;;;;;;;9.32;4.38;;;;;;;17.06;51.53;101476.25;6274766;22;20023;-58
2022/09/23 11:25:55;;;;;;;9.80;4.57;;;;;;;17.08;51.95;101480.44;6270878;22;20004;-59
2022/09/23 11:28:35;;;;;;;6.43;4.20;;;;;;;17.04;51.90;101470.06;6269395;22;20023;-59
2022/09/23 11:31:13;;;;;;;7.32;3.90;;;;;;;17.09;51.92;101478.44;6272424;22;20117;-59
2022/09/23 11:34:06;;;;;;;6.60;3.25;;;;;;;17.10;52.48;101466.13;6273975;22;20051;-59
2022/09/23 11:36:36;;;;;;;8.05;4.57;;;;;;;17.09;51.78;101464.44;6274311;22;20012;-59
2022/09/23 11:39:12;;;;;;;6.25;3.80;;;;;;;17.24;52.17;101467.22;6273966;22;20368;-60
2022/09/23 11:41:39;;;;;;;6.88;4.10;;;;;;;17.14;51.14;101462.47;6272967;22;19999;-59
2022/09/23 11:44:10;;;;;;;5.53;3.17;;;;;;;17.27;52.38;101461.06;6274039;22;20007;-58
2022/09/23 11:47:04;;;;;;;6.90;4.07;;;;;;;17.24;51.40;101461.59;6272820;22;20392;-58
2022/09/23 11:49:34;;;;;;;7.22;3.40;;;;;;;17.41;51.91;101453.75;6271732;22;20451;-58
2022/09/23 11:52:25;;;;;;;7.82;3.70;;;;;;;17.40;52.13;101448.38;6272564;22;20053;-58
2022/09/23 11:55:00;;;;;;;6.20;3.58;;;;;;;17.43;51.24;101447.81;6272659;22;20432;-58